sensor_id;sensor_type;location;lat;lon;timestamp;noise_LAeq;noise_LA_min;noise_LA_max;noise_LA01;noise_LA95
60503;Laerm;51448;51.660;5.824;2024-02-04T00:00:23;41.72;30.12;61.46;;
60503;Laerm;51448;51.660;5.824;2024-02-04T00:02:53;34.31;30.32;54.78;;
60503;Laerm;51448;51.660;5.824;2024-02-04T00:05:22;33.52;30.27;50.48;;
60503;Laerm;51448;51.660;5.824;2024-02-04T00:07:51;35.64;30.26;55.07;;
60503;Laerm;51448;51.660;5.824;2024-02-04T00:10:20;43.38;31.09;59.13;;
60503;Laerm;51448;51.660;5.824;2024-02-04T00:12:49;42.70;29.55;61.21;;
60503;Laerm;51448;51.660;5.824;2024-02-04T00:15:18;35.64;31.34;55.25;;
60503;Laerm;51448;51.660;5.824;2024-02-04T00:17:48;40.32;30.70;56.61;;
60503;Laerm;51448;51.660;5.824;2024-02-04T00:20:16;40.86;32.30;57.45;;
60503;Laerm;51448;51.660;5.824;2024-02-04T00:22:45;45.28;31.72;64.68;;
60503;Laerm;51448;51.660;5.824;2024-02-04T00:25:14;47.06;35.11;58.00;;
60503;Laerm;51448;51.660;5.824;2024-02-04T00:27:44;45.55;39.33;62.01;;
60503;Laerm;51448;51.660;5.824;2024-02-04T00:30:13;41.93;35.22;60.91;;
60503;Laerm;51448;51.660;5.824;2024-02-04T00:32:42;38.19;32.48;58.08;;
60503;Laerm;51448;51.660;5.824;2024-02-04T00:35:12;37.06;31.60;56.63;;
60503;Laerm;51448;51.660;5.824;2024-02-04T00:37:41;39.35;32.54;63.37;;
60503;Laerm;51448;51.660;5.824;2024-02-04T00:40:10;39.33;34.31;59.66;;
60503;Laerm;51448;51.660;5.824;2024-02-04T00:42:40;46.42;35.95;73.31;;
60503;Laerm;51448;51.660;5.824;2024-02-04T00:45:09;50.02;34.19;74.17;;
60503;Laerm;51448;51.660;5.824;2024-02-04T00:47:38;38.92;33.53;62.25;;
60503;Laerm;51448;51.660;5.824;2024-02-04T00:50:08;39.14;32.07;60.63;;
60503;Laerm;51448;51.660;5.824;2024-02-04T00:52:38;41.56;33.20;56.71;;
60503;Laerm;51448;51.660;5.824;2024-02-04T00:55:07;45.50;32.17;66.15;;
60503;Laerm;51448;51.660;5.824;2024-02-04T00:57:36;43.15;33.10;69.22;;
60503;Laerm;51448;51.660;5.824;2024-02-04T01:00:05;47.63;31.83;73.28;;
60503;Laerm;51448;51.660;5.824;2024-02-04T01:02:34;40.06;30.77;62.07;;
60503;Laerm;51448;51.660;5.824;2024-02-04T01:05:03;49.80;31.38;76.75;;
60503;Laerm;51448;51.660;5.824;2024-02-04T01:07:33;48.35;31.40;73.56;;
60503;Laerm;51448;51.660;5.824;2024-02-04T01:10:01;48.27;31.69;72.37;;
60503;Laerm;51448;51.660;5.824;2024-02-04T01:12:34;41.54;31.59;72.58;;
60503;Laerm;51448;51.660;5.824;2024-02-04T01:15:02;46.14;30.67;67.94;;
60503;Laerm;51448;51.660;5.824;2024-02-04T01:17:32;43.43;30.84;65.45;;
60503;Laerm;51448;51.660;5.824;2024-02-04T01:20:02;43.59;30.65;71.50;;
60503;Laerm;51448;51.660;5.824;2024-02-04T01:22:32;47.89;31.24;79.11;;
60503;Laerm;51448;51.660;5.824;2024-02-04T01:25:01;34.80;30.41;59.80;;
60503;Laerm;51448;51.660;5.824;2024-02-04T01:27:30;43.59;31.20;61.53;;
60503;Laerm;51448;51.660;5.824;2024-02-04T01:29:58;40.84;30.04;69.24;;
60503;Laerm;51448;51.660;5.824;2024-02-04T01:32:26;43.04;30.65;69.30;;
60503;Laerm;51448;51.660;5.824;2024-02-04T01:34:55;44.47;30.37;68.61;;
60503;Laerm;51448;51.660;5.824;2024-02-04T01:37:25;40.64;30.19;66.25;;
60503;Laerm;51448;51.660;5.824;2024-02-04T01:39:54;35.07;29.98;61.92;;
60503;Laerm;51448;51.660;5.824;2024-02-04T01:42:24;38.44;30.03;63.87;;
60503;Laerm;51448;51.660;5.824;2024-02-04T01:44:54;39.99;29.81;65.89;;
60503;Laerm;51448;51.660;5.824;2024-02-04T01:47:24;41.73;29.82;68.53;;
60503;Laerm;51448;51.660;5.824;2024-02-04T01:49:52;38.29;29.62;67.49;;
60503;Laerm;51448;51.660;5.824;2024-02-04T01:52:24;35.58;29.38;61.15;;
60503;Laerm;51448;51.660;5.824;2024-02-04T01:54:55;43.43;29.63;66.29;;
60503;Laerm;51448;51.660;5.824;2024-02-04T01:57:24;36.52;29.63;66.26;;
60503;Laerm;51448;51.660;5.824;2024-02-04T01:59:55;40.75;29.67;65.55;;
60503;Laerm;51448;51.660;5.824;2024-02-04T02:02:26;41.40;29.58;60.14;;
60503;Laerm;51448;51.660;5.824;2024-02-04T02:04:58;43.82;29.71;67.54;;
60503;Laerm;51448;51.660;5.824;2024-02-04T02:07:28;33.91;29.67;54.95;;
60503;Laerm;51448;51.660;5.824;2024-02-04T02:09:59;37.48;29.24;64.34;;
60503;Laerm;51448;51.660;5.824;2024-02-04T02:12:40;32.89;29.41;52.88;;
60503;Laerm;51448;51.660;5.824;2024-02-04T02:15:18;33.37;29.25;55.51;;
60503;Laerm;51448;51.660;5.824;2024-02-04T02:21:08;32.99;28.62;50.12;;
60503;Laerm;51448;51.660;5.824;2024-02-04T02:24:10;39.43;29.41;61.14;;
60503;Laerm;51448;51.660;5.824;2024-02-04T02:26:39;43.54;29.43;72.35;;
60503;Laerm;51448;51.660;5.824;2024-02-04T02:29:08;38.55;29.48;53.79;;
60503;Laerm;51448;51.660;5.824;2024-02-04T02:31:42;33.46;29.08;60.38;;
60503;Laerm;51448;51.660;5.824;2024-02-04T02:34:17;31.71;29.37;52.82;;
60503;Laerm;51448;51.660;5.824;2024-02-04T02:40:06;35.55;30.00;55.18;;
60503;Laerm;51448;51.660;5.824;2024-02-04T02:42:38;36.36;30.11;56.69;;
60503;Laerm;51448;51.660;5.824;2024-02-04T02:45:11;45.10;30.06;74.56;;
60503;Laerm;51448;51.660;5.824;2024-02-04T02:47:42;50.08;30.21;76.13;;
60503;Laerm;51448;51.660;5.824;2024-02-04T02:50:13;47.37;29.71;73.78;;
60503;Laerm;51448;51.660;5.824;2024-02-04T02:52:41;41.88;29.95;66.32;;
60503;Laerm;51448;51.660;5.824;2024-02-04T02:55:12;32.57;29.61;46.99;;
60503;Laerm;51448;51.660;5.824;2024-02-04T02:57:43;37.40;29.31;60.63;;
60503;Laerm;51448;51.660;5.824;2024-02-04T03:00:12;42.47;29.73;67.90;;
60503;Laerm;51448;51.660;5.824;2024-02-04T03:02:43;44.84;29.51;71.93;;
60503;Laerm;51448;51.660;5.824;2024-02-04T03:05:12;31.87;29.79;42.77;;
60503;Laerm;51448;51.660;5.824;2024-02-04T03:07:41;39.67;29.62;63.77;;
60503;Laerm;51448;51.660;5.824;2024-02-04T03:10:09;42.52;29.13;65.90;;
60503;Laerm;51448;51.660;5.824;2024-02-04T03:12:38;35.32;29.20;59.20;;
60503;Laerm;51448;51.660;5.824;2024-02-04T03:15:07;41.38;29.58;66.83;;
60503;Laerm;51448;51.660;5.824;2024-02-04T03:17:35;41.36;29.68;64.61;;
60503;Laerm;51448;51.660;5.824;2024-02-04T03:20:03;34.31;29.63;54.94;;
60503;Laerm;51448;51.660;5.824;2024-02-04T03:22:32;38.72;29.94;62.90;;
60503;Laerm;51448;51.660;5.824;2024-02-04T03:25:00;45.43;29.54;73.11;;
60503;Laerm;51448;51.660;5.824;2024-02-04T03:27:31;39.42;30.39;62.22;;
60503;Laerm;51448;51.660;5.824;2024-02-04T03:29:59;36.53;30.20;60.07;;
60503;Laerm;51448;51.660;5.824;2024-02-04T03:32:27;36.14;30.05;63.40;;
60503;Laerm;51448;51.660;5.824;2024-02-04T03:34:54;32.32;29.52;50.00;;
60503;Laerm;51448;51.660;5.824;2024-02-04T03:37:22;32.79;29.33;54.20;;
60503;Laerm;51448;51.660;5.824;2024-02-04T03:39:49;33.37;29.59;57.57;;
60503;Laerm;51448;51.660;5.824;2024-02-04T03:42:17;52.08;30.94;84.67;;
60503;Laerm;51448;51.660;5.824;2024-02-04T03:44:46;39.83;29.76;61.13;;
60503;Laerm;51448;51.660;5.824;2024-02-04T03:47:14;34.10;29.72;59.16;;
60503;Laerm;51448;51.660;5.824;2024-02-04T03:49:42;31.57;29.68;43.45;;
60503;Laerm;51448;51.660;5.824;2024-02-04T03:52:09;44.19;29.94;74.31;;
60503;Laerm;51448;51.660;5.824;2024-02-04T03:54:37;39.28;30.75;65.32;;
60503;Laerm;51448;51.660;5.824;2024-02-04T03:57:05;38.71;30.07;62.63;;
60503;Laerm;51448;51.660;5.824;2024-02-04T03:59:34;38.37;29.82;63.70;;
60503;Laerm;51448;51.660;5.824;2024-02-04T04:02:02;39.20;29.78;65.61;;
60503;Laerm;51448;51.660;5.824;2024-02-04T04:04:29;42.14;30.41;64.09;;
60503;Laerm;51448;51.660;5.824;2024-02-04T04:06:57;38.18;29.82;52.08;;
60503;Laerm;51448;51.660;5.824;2024-02-04T04:09:25;35.83;29.86;59.05;;
60503;Laerm;51448;51.660;5.824;2024-02-04T04:11:53;31.52;29.39;49.04;;
60503;Laerm;51448;51.660;5.824;2024-02-04T04:14:20;31.23;29.28;42.53;;
60503;Laerm;51448;51.660;5.824;2024-02-04T04:16:49;45.58;29.96;71.33;;
60503;Laerm;51448;51.660;5.824;2024-02-04T04:19:18;32.55;29.49;48.70;;
60503;Laerm;51448;51.660;5.824;2024-02-04T04:21:46;36.69;29.91;67.73;;
60503;Laerm;51448;51.660;5.824;2024-02-04T04:24:15;40.39;30.16;66.52;;
60503;Laerm;51448;51.660;5.824;2024-02-04T04:26:47;34.65;29.87;53.76;;
60503;Laerm;51448;51.660;5.824;2024-02-04T04:29:16;37.79;29.33;52.12;;
60503;Laerm;51448;51.660;5.824;2024-02-04T04:31:45;31.58;29.47;43.88;;
60503;Laerm;51448;51.660;5.824;2024-02-04T04:34:13;43.10;29.32;71.76;;
60503;Laerm;51448;51.660;5.824;2024-02-04T04:36:41;35.21;29.55;58.55;;
60503;Laerm;51448;51.660;5.824;2024-02-04T04:39:10;34.51;29.62;58.26;;
60503;Laerm;51448;51.660;5.824;2024-02-04T04:41:40;32.05;29.37;49.84;;
60503;Laerm;51448;51.660;5.824;2024-02-04T04:44:08;31.36;29.42;47.44;;
60503;Laerm;51448;51.660;5.824;2024-02-04T04:46:39;32.10;29.52;48.05;;
60503;Laerm;51448;51.660;5.824;2024-02-04T04:49:08;38.44;30.24;56.90;;
60503;Laerm;51448;51.660;5.824;2024-02-04T04:51:37;31.10;29.23;45.75;;
60503;Laerm;51448;51.660;5.824;2024-02-04T04:54:06;31.34;29.22;49.09;;
60503;Laerm;51448;51.660;5.824;2024-02-04T04:56:40;32.72;29.24;51.13;;
60503;Laerm;51448;51.660;5.824;2024-02-04T04:59:10;32.69;29.60;49.34;;
60503;Laerm;51448;51.660;5.824;2024-02-04T05:01:48;33.00;29.33;50.07;;
60503;Laerm;51448;51.660;5.824;2024-02-04T05:04:17;32.73;29.33;51.92;;
60503;Laerm;51448;51.660;5.824;2024-02-04T05:06:47;34.50;29.68;51.02;;
60503;Laerm;51448;51.660;5.824;2024-02-04T05:09:15;42.96;29.58;61.10;;
60503;Laerm;51448;51.660;5.824;2024-02-04T05:11:43;36.19;30.20;58.25;;
60503;Laerm;51448;51.660;5.824;2024-02-04T05:14:11;40.11;30.38;58.41;;
60503;Laerm;51448;51.660;5.824;2024-02-04T05:16:38;35.48;29.91;56.82;;
60503;Laerm;51448;51.660;5.824;2024-02-04T05:19:06;31.73;29.51;43.63;;
60503;Laerm;51448;51.660;5.824;2024-02-04T05:21:39;32.26;29.77;42.18;;
60503;Laerm;51448;51.660;5.824;2024-02-04T05:24:07;41.21;33.84;50.77;;
60503;Laerm;51448;51.660;5.824;2024-02-04T05:26:35;41.62;31.38;56.98;;
60503;Laerm;51448;51.660;5.824;2024-02-04T05:29:02;34.58;30.22;54.41;;
60503;Laerm;51448;51.660;5.824;2024-02-04T05:31:30;34.70;30.01;58.17;;
60503;Laerm;51448;51.660;5.824;2024-02-04T05:33:57;37.89;30.18;56.45;;
60503;Laerm;51448;51.660;5.824;2024-02-04T05:36:25;36.10;31.16;61.06;;
60503;Laerm;51448;51.660;5.824;2024-02-04T05:38:53;43.63;30.63;61.28;;
60503;Laerm;51448;51.660;5.824;2024-02-04T05:41:20;43.23;30.92;69.56;;
60503;Laerm;51448;51.660;5.824;2024-02-04T05:43:48;40.06;30.15;58.34;;
60503;Laerm;51448;51.660;5.824;2024-02-04T05:46:15;42.69;31.29;62.88;;
60503;Laerm;51448;51.660;5.824;2024-02-04T05:48:43;42.17;31.68;68.74;;
60503;Laerm;51448;51.660;5.824;2024-02-04T05:51:12;44.14;31.59;60.57;;
60503;Laerm;51448;51.660;5.824;2024-02-04T05:53:40;49.20;30.96;80.28;;
60503;Laerm;51448;51.660;5.824;2024-02-04T05:56:08;38.89;30.88;63.37;;
60503;Laerm;51448;51.660;5.824;2024-02-04T05:58:35;36.80;30.99;57.72;;
60503;Laerm;51448;51.660;5.824;2024-02-04T06:01:03;50.21;31.42;77.79;;
60503;Laerm;51448;51.660;5.824;2024-02-04T06:03:30;36.85;30.45;64.98;;
60503;Laerm;51448;51.660;5.824;2024-02-04T06:05:58;43.86;30.66;66.35;;
60503;Laerm;51448;51.660;5.824;2024-02-04T06:08:26;36.85;30.86;58.52;;
60503;Laerm;51448;51.660;5.824;2024-02-04T06:10:53;51.80;32.56;82.55;;
60503;Laerm;51448;51.660;5.824;2024-02-04T06:13:21;40.45;31.11;64.69;;
60503;Laerm;51448;51.660;5.824;2024-02-04T06:15:48;41.23;31.51;67.47;;
60503;Laerm;51448;51.660;5.824;2024-02-04T06:18:16;48.21;31.01;74.85;;
60503;Laerm;51448;51.660;5.824;2024-02-04T06:20:43;35.72;31.27;53.76;;
60503;Laerm;51448;51.660;5.824;2024-02-04T06:23:11;38.35;31.00;62.83;;
60503;Laerm;51448;51.660;5.824;2024-02-04T06:25:42;41.71;31.01;65.08;;
60503;Laerm;51448;51.660;5.824;2024-02-04T06:28:10;46.66;30.75;77.54;;
60503;Laerm;51448;51.660;5.824;2024-02-04T06:30:38;38.99;30.23;58.49;;
60503;Laerm;51448;51.660;5.824;2024-02-04T06:33:06;44.29;30.48;64.23;;
60503;Laerm;51448;51.660;5.824;2024-02-04T06:35:34;43.50;31.69;64.67;;
60503;Laerm;51448;51.660;5.824;2024-02-04T06:38:02;39.29;32.24;64.43;;
60503;Laerm;51448;51.660;5.824;2024-02-04T06:40:30;53.73;31.01;74.22;;
60503;Laerm;51448;51.660;5.824;2024-02-04T06:42:58;58.66;30.64;77.33;;
60503;Laerm;51448;51.660;5.824;2024-02-04T06:45:27;56.78;31.07;86.45;;
60503;Laerm;51448;51.660;5.824;2024-02-04T06:47:55;42.76;31.17;63.34;;
60503;Laerm;51448;51.660;5.824;2024-02-04T06:50:23;39.05;31.87;65.37;;
60503;Laerm;51448;51.660;5.824;2024-02-04T06:52:51;36.33;31.03;55.10;;
60503;Laerm;51448;51.660;5.824;2024-02-04T06:55:19;41.34;31.08;67.87;;
60503;Laerm;51448;51.660;5.824;2024-02-04T06:57:46;43.14;31.35;65.28;;
60503;Laerm;51448;51.660;5.824;2024-02-04T07:00:14;42.67;32.44;66.20;;
60503;Laerm;51448;51.660;5.824;2024-02-04T07:02:43;44.60;32.46;60.09;;
60503;Laerm;51448;51.660;5.824;2024-02-04T07:05:11;37.08;31.59;55.83;;
60503;Laerm;51448;51.660;5.824;2024-02-04T07:07:38;50.17;32.37;76.87;;
60503;Laerm;51448;51.660;5.824;2024-02-04T07:10:07;38.55;32.02;59.22;;
60503;Laerm;51448;51.660;5.824;2024-02-04T07:12:35;36.85;31.08;56.84;;
60503;Laerm;51448;51.660;5.824;2024-02-04T07:15:02;46.44;31.53;74.58;;
60503;Laerm;51448;51.660;5.824;2024-02-04T07:17:30;43.76;31.15;64.18;;
60503;Laerm;51448;51.660;5.824;2024-02-04T07:19:58;40.88;32.19;57.76;;
60503;Laerm;51448;51.660;5.824;2024-02-04T07:22:26;43.54;33.14;62.50;;
60503;Laerm;51448;51.660;5.824;2024-02-04T07:24:53;42.12;32.86;59.01;;
60503;Laerm;51448;51.660;5.824;2024-02-04T07:27:21;47.12;31.74;76.25;;
60503;Laerm;51448;51.660;5.824;2024-02-04T07:29:49;45.69;32.54;64.48;;
60503;Laerm;51448;51.660;5.824;2024-02-04T07:32:20;48.34;32.33;70.01;;
60503;Laerm;51448;51.660;5.824;2024-02-04T07:34:48;48.38;34.04;73.02;;
60503;Laerm;51448;51.660;5.824;2024-02-04T07:37:16;42.91;33.93;64.57;;
60503;Laerm;51448;51.660;5.824;2024-02-04T07:39:45;44.18;34.00;59.28;;
60503;Laerm;51448;51.660;5.824;2024-02-04T07:42:13;47.54;33.89;78.55;;
60503;Laerm;51448;51.660;5.824;2024-02-04T07:44:40;44.37;34.03;61.64;;
60503;Laerm;51448;51.660;5.824;2024-02-04T07:47:11;49.72;34.53;76.39;;
60503;Laerm;51448;51.660;5.824;2024-02-04T07:49:41;48.36;36.83;68.90;;
60503;Laerm;51448;51.660;5.824;2024-02-04T07:52:08;47.17;36.81;65.64;;
60503;Laerm;51448;51.660;5.824;2024-02-04T07:54:36;44.66;36.49;54.73;;
60503;Laerm;51448;51.660;5.824;2024-02-04T07:57:04;43.73;31.72;68.26;;
60503;Laerm;51448;51.660;5.824;2024-02-04T07:59:31;40.18;32.80;68.43;;
60503;Laerm;51448;51.660;5.824;2024-02-04T08:01:59;37.19;32.13;51.35;;
60503;Laerm;51448;51.660;5.824;2024-02-04T08:04:27;41.99;32.80;59.23;;
60503;Laerm;51448;51.660;5.824;2024-02-04T08:06:54;40.28;31.28;67.76;;
60503;Laerm;51448;51.660;5.824;2024-02-04T08:09:22;42.06;32.56;58.52;;
60503;Laerm;51448;51.660;5.824;2024-02-04T08:11:50;41.63;33.34;64.26;;
60503;Laerm;51448;51.660;5.824;2024-02-04T08:14:17;45.10;34.34;60.84;;
60503;Laerm;51448;51.660;5.824;2024-02-04T08:16:45;46.85;32.14;67.68;;
60503;Laerm;51448;51.660;5.824;2024-02-04T08:19:14;40.87;32.96;59.60;;
60503;Laerm;51448;51.660;5.824;2024-02-04T08:21:42;45.09;34.96;65.88;;
60503;Laerm;51448;51.660;5.824;2024-02-04T08:24:10;43.26;34.44;57.31;;
60503;Laerm;51448;51.660;5.824;2024-02-04T08:26:37;43.71;33.78;57.21;;
60503;Laerm;51448;51.660;5.824;2024-02-04T08:29:05;45.19;33.98;58.02;;
60503;Laerm;51448;51.660;5.824;2024-02-04T08:31:32;48.26;34.08;64.64;;
60503;Laerm;51448;51.660;5.824;2024-02-04T08:34:06;49.99;33.81;75.84;;
60503;Laerm;51448;51.660;5.824;2024-02-04T08:36:37;42.80;32.61;65.20;;
60503;Laerm;51448;51.660;5.824;2024-02-04T08:39:07;39.08;31.41;57.06;;
60503;Laerm;51448;51.660;5.824;2024-02-04T08:41:37;46.36;34.57;69.35;;
60503;Laerm;51448;51.660;5.824;2024-02-04T08:44:08;43.45;33.43;69.48;;
60503;Laerm;51448;51.660;5.824;2024-02-04T08:46:51;45.38;34.07;61.62;;
60503;Laerm;51448;51.660;5.824;2024-02-04T08:49:24;45.52;33.55;62.40;;
60503;Laerm;51448;51.660;5.824;2024-02-04T08:52:03;48.43;35.98;60.19;;
60503;Laerm;51448;51.660;5.824;2024-02-04T08:54:36;43.33;34.30;62.02;;
60503;Laerm;51448;51.660;5.824;2024-02-04T08:57:08;49.01;33.92;80.08;;
60503;Laerm;51448;51.660;5.824;2024-02-04T08:59:39;48.72;33.97;73.50;;
60503;Laerm;51448;51.660;5.824;2024-02-04T09:02:07;44.45;33.68;61.47;;
60503;Laerm;51448;51.660;5.824;2024-02-04T09:04:38;46.45;36.23;67.88;;
60503;Laerm;51448;51.660;5.824;2024-02-04T09:07:08;45.93;37.65;61.69;;
60503;Laerm;51448;51.660;5.824;2024-02-04T09:09:36;47.94;38.16;61.76;;
60503;Laerm;51448;51.660;5.824;2024-02-04T09:12:04;46.62;35.27;63.77;;
60503;Laerm;51448;51.660;5.824;2024-02-04T09:14:32;48.14;34.71;69.50;;
60503;Laerm;51448;51.660;5.824;2024-02-04T09:17:03;59.57;35.71;86.91;;
60503;Laerm;51448;51.660;5.824;2024-02-04T09:19:32;51.02;34.87;73.60;;
60503;Laerm;51448;51.660;5.824;2024-02-04T09:22:01;47.23;35.80;60.16;;
60503;Laerm;51448;51.660;5.824;2024-02-04T09:24:33;51.98;35.91;76.03;;
60503;Laerm;51448;51.660;5.824;2024-02-04T09:27:02;53.13;38.19;75.77;;
60503;Laerm;51448;51.660;5.824;2024-02-04T09:29:30;45.47;34.39;61.32;;
60503;Laerm;51448;51.660;5.824;2024-02-04T09:31:59;45.73;36.44;58.28;;
60503;Laerm;51448;51.660;5.824;2024-02-04T09:34:28;46.02;35.59;64.60;;
60503;Laerm;51448;51.660;5.824;2024-02-04T09:37:00;44.77;35.01;69.46;;
60503;Laerm;51448;51.660;5.824;2024-02-04T09:39:32;52.68;34.33;81.22;;
60503;Laerm;51448;51.660;5.824;2024-02-04T09:42:04;42.89;35.37;58.42;;
60503;Laerm;51448;51.660;5.824;2024-02-04T09:44:34;44.93;34.76;63.99;;
60503;Laerm;51448;51.660;5.824;2024-02-04T09:47:04;44.46;37.12;59.25;;
60503;Laerm;51448;51.660;5.824;2024-02-04T09:49:35;48.07;35.82;69.76;;
60503;Laerm;51448;51.660;5.824;2024-02-04T09:52:08;46.12;35.42;61.96;;
60503;Laerm;51448;51.660;5.824;2024-02-04T09:54:45;44.73;34.19;61.80;;
60503;Laerm;51448;51.660;5.824;2024-02-04T09:57:13;46.64;34.97;63.33;;
60503;Laerm;51448;51.660;5.824;2024-02-04T09:59:44;46.72;34.13;76.51;;
60503;Laerm;51448;51.660;5.824;2024-02-04T10:02:13;45.33;34.14;63.43;;
60503;Laerm;51448;51.660;5.824;2024-02-04T10:04:48;47.21;35.23;59.27;;
60503;Laerm;51448;51.660;5.824;2024-02-04T10:07:17;45.93;35.63;69.15;;
60503;Laerm;51448;51.660;5.824;2024-02-04T10:09:46;43.32;34.85;62.99;;
60503;Laerm;51448;51.660;5.824;2024-02-04T10:12:14;42.20;34.03;61.73;;
60503;Laerm;51448;51.660;5.824;2024-02-04T10:14:41;45.95;35.73;61.41;;
60503;Laerm;51448;51.660;5.824;2024-02-04T10:17:09;44.05;34.62;64.85;;
60503;Laerm;51448;51.660;5.824;2024-02-04T10:19:37;50.95;36.13;81.07;;
60503;Laerm;51448;51.660;5.824;2024-02-04T10:22:05;43.84;35.18;60.32;;
60503;Laerm;51448;51.660;5.824;2024-02-04T10:24:32;43.87;34.21;67.82;;
60503;Laerm;51448;51.660;5.824;2024-02-04T10:27:00;45.71;34.08;73.17;;
60503;Laerm;51448;51.660;5.824;2024-02-04T10:29:28;46.06;35.93;57.93;;
60503;Laerm;51448;51.660;5.824;2024-02-04T10:31:56;45.91;34.18;60.47;;
60503;Laerm;51448;51.660;5.824;2024-02-04T10:34:28;49.22;36.41;75.67;;
60503;Laerm;51448;51.660;5.824;2024-02-04T10:36:57;49.47;36.99;71.75;;
60503;Laerm;51448;51.660;5.824;2024-02-04T10:39:25;47.83;35.19;69.48;;
60503;Laerm;51448;51.660;5.824;2024-02-04T10:41:53;49.48;35.72;69.89;;
60503;Laerm;51448;51.660;5.824;2024-02-04T10:44:22;48.91;35.85;68.32;;
60503;Laerm;51448;51.660;5.824;2024-02-04T10:46:52;50.86;35.68;77.78;;
60503;Laerm;51448;51.660;5.824;2024-02-04T10:49:26;50.22;34.66;66.98;;
60503;Laerm;51448;51.660;5.824;2024-02-04T10:51:57;55.36;35.23;82.53;;
60503;Laerm;51448;51.660;5.824;2024-02-04T10:54:28;47.56;34.48;63.24;;
60503;Laerm;51448;51.660;5.824;2024-02-04T10:57:05;44.46;33.11;60.75;;
60503;Laerm;51448;51.660;5.824;2024-02-04T10:59:34;40.28;34.16;54.39;;
60503;Laerm;51448;51.660;5.824;2024-02-04T11:02:05;47.92;35.53;61.55;;
60503;Laerm;51448;51.660;5.824;2024-02-04T11:04:34;45.68;35.07;57.22;;
60503;Laerm;51448;51.660;5.824;2024-02-04T11:07:04;43.47;36.36;59.71;;
60503;Laerm;51448;51.660;5.824;2024-02-04T11:09:32;45.07;34.94;60.80;;
60503;Laerm;51448;51.660;5.824;2024-02-04T11:12:03;44.40;35.49;60.03;;
60503;Laerm;51448;51.660;5.824;2024-02-04T11:14:35;44.07;34.79;61.99;;
60503;Laerm;51448;51.660;5.824;2024-02-04T11:17:31;45.11;35.98;58.75;;
60503;Laerm;51448;51.660;5.824;2024-02-04T11:20:36;48.37;34.88;68.91;;
60503;Laerm;51448;51.660;5.824;2024-02-04T11:23:37;48.52;35.62;61.89;;
60503;Laerm;51448;51.660;5.824;2024-02-04T11:26:15;49.47;37.12;60.66;;
60503;Laerm;51448;51.660;5.824;2024-02-04T11:28:45;45.27;35.05;71.08;;
60503;Laerm;51448;51.660;5.824;2024-02-04T11:31:23;46.46;36.55;64.97;;
60503;Laerm;51448;51.660;5.824;2024-02-04T11:34:08;48.94;36.69;73.46;;
60503;Laerm;51448;51.660;5.824;2024-02-04T11:36:46;47.41;34.67;66.44;;
60503;Laerm;51448;51.660;5.824;2024-02-04T11:39:19;48.17;35.40;68.51;;
60503;Laerm;51448;51.660;5.824;2024-02-04T11:41:54;50.31;33.72;79.91;;
60503;Laerm;51448;51.660;5.824;2024-02-04T11:44:24;48.63;36.86;69.92;;
60503;Laerm;51448;51.660;5.824;2024-02-04T11:47:01;49.46;36.99;62.59;;
60503;Laerm;51448;51.660;5.824;2024-02-04T11:49:39;47.13;35.20;76.00;;
60503;Laerm;51448;51.660;5.824;2024-02-04T11:52:18;49.54;35.72;75.46;;
60503;Laerm;51448;51.660;5.824;2024-02-04T11:54:51;47.02;36.09;72.13;;
60503;Laerm;51448;51.660;5.824;2024-02-04T11:57:22;51.00;35.73;72.99;;
60503;Laerm;51448;51.660;5.824;2024-02-04T12:04:27;47.79;34.71;71.05;;
60503;Laerm;51448;51.660;5.824;2024-02-04T12:07:30;47.38;34.21;67.53;;
60503;Laerm;51448;51.660;5.824;2024-02-04T12:10:05;48.36;34.73;65.61;;
60503;Laerm;51448;51.660;5.824;2024-02-04T12:12:34;46.28;34.70;65.02;;
60503;Laerm;51448;51.660;5.824;2024-02-04T12:15:03;43.86;36.43;60.54;;
60503;Laerm;51448;51.660;5.824;2024-02-04T12:17:31;48.11;35.51;61.34;;
60503;Laerm;51448;51.660;5.824;2024-02-04T12:20:00;45.71;35.48;63.57;;
60503;Laerm;51448;51.660;5.824;2024-02-04T12:22:28;51.55;36.69;76.25;;
60503;Laerm;51448;51.660;5.824;2024-02-04T12:25:01;49.75;33.94;77.78;;
60503;Laerm;51448;51.660;5.824;2024-02-04T12:27:35;45.20;34.87;64.04;;
60503;Laerm;51448;51.660;5.824;2024-02-04T12:30:07;47.95;34.75;70.38;;
60503;Laerm;51448;51.660;5.824;2024-02-04T12:32:40;40.18;35.50;59.85;;
60503;Laerm;51448;51.660;5.824;2024-02-04T12:35:13;50.27;35.66;72.15;;
60503;Laerm;51448;51.660;5.824;2024-02-04T12:37:57;47.78;35.85;68.78;;
60503;Laerm;51448;51.660;5.824;2024-02-04T12:40:33;51.89;34.88;83.25;;
60503;Laerm;51448;51.660;5.824;2024-02-04T12:43:12;50.59;34.59;82.01;;
60503;Laerm;51448;51.660;5.824;2024-02-04T12:45:44;45.95;34.66;64.92;;
60503;Laerm;51448;51.660;5.824;2024-02-04T12:48:15;44.38;35.55;60.54;;
60503;Laerm;51448;51.660;5.824;2024-02-04T12:50:55;47.00;34.74;61.89;;
60503;Laerm;51448;51.660;5.824;2024-02-04T12:53:25;45.74;36.59;62.02;;
60503;Laerm;51448;51.660;5.824;2024-02-04T12:55:59;46.67;36.21;60.63;;
60503;Laerm;51448;51.660;5.824;2024-02-04T12:58:28;46.53;35.54;66.43;;
60503;Laerm;51448;51.660;5.824;2024-02-04T13:01:00;56.27;36.30;83.69;;
60503;Laerm;51448;51.660;5.824;2024-02-04T13:03:32;45.43;35.22;64.64;;
60503;Laerm;51448;51.660;5.824;2024-02-04T13:06:00;44.89;36.73;63.99;;
60503;Laerm;51448;51.660;5.824;2024-02-04T13:08:28;43.93;35.73;58.89;;
60503;Laerm;51448;51.660;5.824;2024-02-04T13:10:57;52.22;34.76;74.50;;
60503;Laerm;51448;51.660;5.824;2024-02-04T13:13:24;44.30;36.25;70.98;;
60503;Laerm;51448;51.660;5.824;2024-02-04T13:15:57;48.98;36.53;74.90;;
60503;Laerm;51448;51.660;5.824;2024-02-04T13:18:28;49.44;35.43;72.79;;
60503;Laerm;51448;51.660;5.824;2024-02-04T13:20:57;49.19;37.37;69.81;;
60503;Laerm;51448;51.660;5.824;2024-02-04T13:23:31;51.48;34.73;79.59;;
60503;Laerm;51448;51.660;5.824;2024-02-04T13:26:03;47.99;36.85;74.04;;
60503;Laerm;51448;51.660;5.824;2024-02-04T13:28:38;61.56;36.07;91.11;;
60503;Laerm;51448;51.660;5.824;2024-02-04T13:31:11;49.00;36.33;62.54;;
60503;Laerm;51448;51.660;5.824;2024-02-04T13:33:50;56.66;35.58;86.29;;
60503;Laerm;51448;51.660;5.824;2024-02-04T13:36:25;48.20;37.53;71.73;;
60503;Laerm;51448;51.660;5.824;2024-02-04T13:38:53;47.53;35.82;66.47;;
60503;Laerm;51448;51.660;5.824;2024-02-04T13:41:21;46.06;36.00;64.20;;
60503;Laerm;51448;51.660;5.824;2024-02-04T13:43:48;54.83;38.41;83.37;;
60503;Laerm;51448;51.660;5.824;2024-02-04T13:46:17;46.91;33.93;71.32;;
60503;Laerm;51448;51.660;5.824;2024-02-04T13:48:44;45.62;36.34;59.51;;
60503;Laerm;51448;51.660;5.824;2024-02-04T13:51:13;45.95;36.75;57.79;;
60503;Laerm;51448;51.660;5.824;2024-02-04T13:53:43;51.81;37.09;66.06;;
60503;Laerm;51448;51.660;5.824;2024-02-04T13:56:11;66.68;35.05;83.23;;
60503;Laerm;51448;51.660;5.824;2024-02-04T13:58:40;47.09;34.28;70.59;;
60503;Laerm;51448;51.660;5.824;2024-02-04T14:01:09;43.36;35.30;58.64;;
60503;Laerm;51448;51.660;5.824;2024-02-04T14:03:38;47.70;35.01;72.20;;
60503;Laerm;51448;51.660;5.824;2024-02-04T14:06:05;45.89;35.80;58.34;;
60503;Laerm;51448;51.660;5.824;2024-02-04T14:08:33;40.80;34.08;62.54;;
60503;Laerm;51448;51.660;5.824;2024-02-04T14:11:00;46.48;34.53;60.40;;